X  Chiuso Dati meteorologici dell'aviazione (METAR)     LICJ Falcone–Borsellino Airport
Temperatura
18°C Temperatura
13°C Punto di rugiada
73% Umidità



Vento
26 KM/H
16 MPH
7 M/S
14 KTS



280°
Ovest
Condizioni attuali

Prevalentemente nuvoloso Prevalentemente nuvoloso
Pressione 1015.92 (hPa) - 30 (inHg)
Visibilità 6.2 (miglio) - 10 (km)
Aeroporto
Codice-Aeroporto LICJ

Posizione: Falcone–Borsellino Airport
Distanza: 55 (km)

Metar:
LICJ 120820Z 28014KT 9999 BKN030 18/13 Q1016

Ore: 12-05-2021 10:20 CEST